Weather at Bethlehem Steel Plant Heliport

Public forecast

Using degrees Fahrenheit for public forecast. Weather courtesy of forecast.io.

Closest aviation weather report (METAR) to Bethlehem Steel Plant Heliport

Closest report is Lehigh Valley International Airport, 5.0 nm (9.2 km) WNW. Retrieved 2021/06/25 01:51 UTC (57 minutes ago):

KABE 250151Z 11007KT 10SM CLR 19/08 A3032 RMK AO2 SLP267 T01940078

Closest aviation forecast (TAF) to Bethlehem Steel Plant Heliport

Closest forecast is Lehigh Valley International Airport, 5.0 nm (9.2 km) WNW. Retrieved 2021-06-25 00:24 UTC (2 hours ago):

TAF KABE 242323Z 2500/2524 11006KT P6SM FEW250 FM250400 VRB02KT P6SM FEW250 FM251600 19007KT P6SM FEW040